sensor_id;sensor_type;location;lat;lon;timestamp;P1;durP1;ratioP1;P2;durP2;ratioP2
10260;SDS011;5175;42.606;23.388;2023-01-01T00:01:07;20.80;;;16.13;;
10260;SDS011;5175;42.606;23.388;2023-01-01T00:03:35;19.23;;;14.67;;
10260;SDS011;5175;42.606;23.388;2023-01-01T00:06:04;20.03;;;14.30;;
10260;SDS011;5175;42.606;23.388;2023-01-01T00:08:31;18.33;;;14.03;;
10260;SDS011;5175;42.606;23.388;2023-01-01T00:10:59;18.07;;;13.37;;
10260;SDS011;5175;42.606;23.388;2023-01-01T00:13:27;15.47;;;11.60;;
10260;SDS011;5175;42.606;23.388;2023-01-01T00:15:55;14.63;;;11.47;;
10260;SDS011;5175;42.606;23.388;2023-01-01T00:18:21;15.20;;;12.67;;
10260;SDS011;5175;42.606;23.388;2023-01-01T00:20:48;18.53;;;13.47;;
10260;SDS011;5175;42.606;23.388;2023-01-01T00:23:15;19.53;;;14.13;;
10260;SDS011;5175;42.606;23.388;2023-01-01T00:25:41;18.90;;;13.60;;
10260;SDS011;5175;42.606;23.388;2023-01-01T00:28:08;16.37;;;12.80;;
10260;SDS011;5175;42.606;23.388;2023-01-01T00:30:37;16.13;;;13.47;;
10260;SDS011;5175;42.606;23.388;2023-01-01T00:33:06;16.97;;;13.20;;
10260;SDS011;5175;42.606;23.388;2023-01-01T00:35:32;16.13;;;12.70;;
10260;SDS011;5175;42.606;23.388;2023-01-01T00:38:00;16.87;;;12.27;;
10260;SDS011;5175;42.606;23.388;2023-01-01T00:40:26;14.13;;;11.00;;
10260;SDS011;5175;42.606;23.388;2023-01-01T00:42:53;13.43;;;10.87;;
10260;SDS011;5175;42.606;23.388;2023-01-01T00:45:20;16.47;;;12.73;;
10260;SDS011;5175;42.606;23.388;2023-01-01T00:47:46;15.20;;;11.00;;
10260;SDS011;5175;42.606;23.388;2023-01-01T00:50:14;13.23;;;10.80;;
10260;SDS011;5175;42.606;23.388;2023-01-01T00:52:41;12.90;;;10.60;;
10260;SDS011;5175;42.606;23.388;2023-01-01T00:55:08;13.10;;;10.03;;
10260;SDS011;5175;42.606;23.388;2023-01-01T00:57:35;12.27;;;10.13;;
10260;SDS011;5175;42.606;23.388;2023-01-01T01:00:02;14.47;;;10.13;;
10260;SDS011;5175;42.606;23.388;2023-01-01T01:02:30;14.43;;;11.43;;
10260;SDS011;5175;42.606;23.388;2023-01-01T01:04:57;16.67;;;13.67;;
10260;SDS011;5175;42.606;23.388;2023-01-01T01:07:26;14.53;;;12.60;;
10260;SDS011;5175;42.606;23.388;2023-01-01T01:09:53;17.70;;;14.43;;
10260;SDS011;5175;42.606;23.388;2023-01-01T01:12:20;17.93;;;14.03;;
10260;SDS011;5175;42.606;23.388;2023-01-01T01:14:46;17.23;;;11.43;;
10260;SDS011;5175;42.606;23.388;2023-01-01T01:17:13;15.77;;;12.13;;
10260;SDS011;5175;42.606;23.388;2023-01-01T01:19:40;16.20;;;12.03;;
10260;SDS011;5175;42.606;23.388;2023-01-01T01:22:06;14.00;;;11.17;;
10260;SDS011;5175;42.606;23.388;2023-01-01T01:24:34;13.67;;;10.47;;
10260;SDS011;5175;42.606;23.388;2023-01-01T01:27:01;14.13;;;11.73;;
10260;SDS011;5175;42.606;23.388;2023-01-01T01:29:28;17.00;;;13.37;;
10260;SDS011;5175;42.606;23.388;2023-01-01T01:31:54;15.80;;;12.97;;
10260;SDS011;5175;42.606;23.388;2023-01-01T01:34:21;14.07;;;10.33;;
10260;SDS011;5175;42.606;23.388;2023-01-01T01:36:48;12.50;;;9.90;;
10260;SDS011;5175;42.606;23.388;2023-01-01T01:39:17;12.57;;;10.40;;
10260;SDS011;5175;42.606;23.388;2023-01-01T01:41:45;14.27;;;11.90;;
10260;SDS011;5175;42.606;23.388;2023-01-01T01:47:12;12.40;;;9.30;;
10260;SDS011;5175;42.606;23.388;2023-01-01T01:49:41;13.70;;;10.87;;
10260;SDS011;5175;42.606;23.388;2023-01-01T01:52:10;14.27;;;10.87;;
10260;SDS011;5175;42.606;23.388;2023-01-01T01:54:37;16.27;;;12.00;;
10260;SDS011;5175;42.606;23.388;2023-01-01T01:57:07;17.93;;;11.60;;
10260;SDS011;5175;42.606;23.388;2023-01-01T01:59:36;15.97;;;12.10;;
10260;SDS011;5175;42.606;23.388;2023-01-01T02:02:08;15.47;;;11.73;;
10260;SDS011;5175;42.606;23.388;2023-01-01T02:04:43;13.43;;;10.10;;
10260;SDS011;5175;42.606;23.388;2023-01-01T02:07:11;30.30;;;17.90;;
10260;SDS011;5175;42.606;23.388;2023-01-01T02:09:39;22.13;;;14.23;;
10260;SDS011;5175;42.606;23.388;2023-01-01T02:12:07;12.80;;;9.40;;
10260;SDS011;5175;42.606;23.388;2023-01-01T02:14:34;12.60;;;10.40;;
10260;SDS011;5175;42.606;23.388;2023-01-01T02:17:02;17.83;;;12.93;;
10260;SDS011;5175;42.606;23.388;2023-01-01T02:19:36;23.20;;;13.83;;
10260;SDS011;5175;42.606;23.388;2023-01-01T02:22:14;20.03;;;14.37;;
10260;SDS011;5175;42.606;23.388;2023-01-01T02:25:03;17.03;;;12.77;;
10260;SDS011;5175;42.606;23.388;2023-01-01T02:27:39;19.90;;;13.30;;
10260;SDS011;5175;42.606;23.388;2023-01-01T02:30:16;17.83;;;13.47;;
10260;SDS011;5175;42.606;23.388;2023-01-01T02:32:44;18.47;;;13.53;;
10260;SDS011;5175;42.606;23.388;2023-01-01T02:35:16;14.73;;;12.17;;
10260;SDS011;5175;42.606;23.388;2023-01-01T02:38:00;17.13;;;13.10;;
10260;SDS011;5175;42.606;23.388;2023-01-01T02:40:32;21.90;;;15.97;;
10260;SDS011;5175;42.606;23.388;2023-01-01T02:43:01;22.40;;;14.83;;
10260;SDS011;5175;42.606;23.388;2023-01-01T02:45:31;18.77;;;14.17;;
10260;SDS011;5175;42.606;23.388;2023-01-01T02:48:01;18.97;;;12.87;;
10260;SDS011;5175;42.606;23.388;2023-01-01T02:50:29;23.83;;;18.37;;
10260;SDS011;5175;42.606;23.388;2023-01-01T02:53:01;15.97;;;11.50;;
10260;SDS011;5175;42.606;23.388;2023-01-01T02:55:43;15.00;;;11.23;;
10260;SDS011;5175;42.606;23.388;2023-01-01T02:58:19;14.13;;;9.87;;
10260;SDS011;5175;42.606;23.388;2023-01-01T03:01:11;18.70;;;12.90;;
10260;SDS011;5175;42.606;23.388;2023-01-01T03:03:47;23.07;;;16.53;;
10260;SDS011;5175;42.606;23.388;2023-01-01T03:06:23;17.57;;;13.17;;
10260;SDS011;5175;42.606;23.388;2023-01-01T03:08:58;16.90;;;13.13;;
10260;SDS011;5175;42.606;23.388;2023-01-01T03:11:34;14.83;;;10.43;;
10260;SDS011;5175;42.606;23.388;2023-01-01T03:14:11;11.87;;;9.67;;
10260;SDS011;5175;42.606;23.388;2023-01-01T03:16:45;13.27;;;9.60;;
10260;SDS011;5175;42.606;23.388;2023-01-01T03:19:16;9.70;;;8.33;;
10260;SDS011;5175;42.606;23.388;2023-01-01T03:21:48;12.73;;;9.33;;
10260;SDS011;5175;42.606;23.388;2023-01-01T03:24:18;11.13;;;8.83;;
10260;SDS011;5175;42.606;23.388;2023-01-01T03:26:49;11.20;;;8.80;;
10260;SDS011;5175;42.606;23.388;2023-01-01T03:29:19;10.87;;;8.83;;
10260;SDS011;5175;42.606;23.388;2023-01-01T03:31:49;19.30;;;13.10;;
10260;SDS011;5175;42.606;23.388;2023-01-01T03:34:20;14.43;;;11.63;;
10260;SDS011;5175;42.606;23.388;2023-01-01T03:36:53;14.13;;;10.10;;
10260;SDS011;5175;42.606;23.388;2023-01-01T03:39:23;12.53;;;9.60;;
10260;SDS011;5175;42.606;23.388;2023-01-01T03:41:56;16.80;;;12.90;;
10260;SDS011;5175;42.606;23.388;2023-01-01T03:44:32;19.23;;;13.13;;
10260;SDS011;5175;42.606;23.388;2023-01-01T03:47:02;17.43;;;12.70;;
10260;SDS011;5175;42.606;23.388;2023-01-01T03:49:30;16.43;;;12.43;;
10260;SDS011;5175;42.606;23.388;2023-01-01T03:52:04;13.73;;;10.77;;
10260;SDS011;5175;42.606;23.388;2023-01-01T03:54:49;15.17;;;11.80;;
10260;SDS011;5175;42.606;23.388;2023-01-01T03:57:23;16.23;;;10.80;;
10260;SDS011;5175;42.606;23.388;2023-01-01T04:00:00;13.23;;;10.23;;
10260;SDS011;5175;42.606;23.388;2023-01-01T04:02:33;15.20;;;11.73;;
10260;SDS011;5175;42.606;23.388;2023-01-01T04:05:03;16.60;;;12.50;;
10260;SDS011;5175;42.606;23.388;2023-01-01T04:07:32;18.13;;;11.87;;
10260;SDS011;5175;42.606;23.388;2023-01-01T04:10:00;17.53;;;12.73;;
10260;SDS011;5175;42.606;23.388;2023-01-01T04:12:41;13.90;;;10.57;;
10260;SDS011;5175;42.606;23.388;2023-01-01T04:15:09;13.10;;;9.27;;
10260;SDS011;5175;42.606;23.388;2023-01-01T04:17:37;12.77;;;9.53;;
10260;SDS011;5175;42.606;23.388;2023-01-01T04:20:04;15.00;;;10.97;;
10260;SDS011;5175;42.606;23.388;2023-01-01T04:22:33;13.90;;;10.70;;
10260;SDS011;5175;42.606;23.388;2023-01-01T04:25:00;14.40;;;11.07;;
10260;SDS011;5175;42.606;23.388;2023-01-01T04:27:26;12.80;;;10.77;;
10260;SDS011;5175;42.606;23.388;2023-01-01T04:29:53;15.10;;;11.17;;
10260;SDS011;5175;42.606;23.388;2023-01-01T04:32:20;899.93;;;66.47;;
10260;SDS011;5175;42.606;23.388;2023-01-01T04:34:48;17.53;;;11.23;;
10260;SDS011;5175;42.606;23.388;2023-01-01T04:37:15;15.37;;;11.80;;
10260;SDS011;5175;42.606;23.388;2023-01-01T04:39:42;13.23;;;10.87;;
10260;SDS011;5175;42.606;23.388;2023-01-01T04:42:09;12.73;;;9.97;;
10260;SDS011;5175;42.606;23.388;2023-01-01T04:44:35;16.90;;;12.43;;
10260;SDS011;5175;42.606;23.388;2023-01-01T04:47:02;20.00;;;14.33;;
10260;SDS011;5175;42.606;23.388;2023-01-01T04:49:29;17.77;;;13.70;;
10260;SDS011;5175;42.606;23.388;2023-01-01T04:51:57;18.03;;;12.70;;
10260;SDS011;5175;42.606;23.388;2023-01-01T04:54:24;17.90;;;12.60;;
10260;SDS011;5175;42.606;23.388;2023-01-01T04:56:50;15.63;;;11.77;;
10260;SDS011;5175;42.606;23.388;2023-01-01T04:59:17;27.13;;;18.53;;
10260;SDS011;5175;42.606;23.388;2023-01-01T05:01:44;21.27;;;15.40;;
10260;SDS011;5175;42.606;23.388;2023-01-01T05:04:11;19.20;;;13.33;;
10260;SDS011;5175;42.606;23.388;2023-01-01T05:06:39;17.67;;;12.90;;
10260;SDS011;5175;42.606;23.388;2023-01-01T05:09:08;19.17;;;13.53;;
10260;SDS011;5175;42.606;23.388;2023-01-01T05:11:36;17.13;;;12.67;;
10260;SDS011;5175;42.606;23.388;2023-01-01T05:14:03;17.90;;;12.93;;
10260;SDS011;5175;42.606;23.388;2023-01-01T05:16:30;15.87;;;12.37;;
10260;SDS011;5175;42.606;23.388;2023-01-01T05:18:58;17.83;;;13.27;;
10260;SDS011;5175;42.606;23.388;2023-01-01T05:21:26;20.93;;;15.60;;
10260;SDS011;5175;42.606;23.388;2023-01-01T05:23:56;36.03;;;24.83;;
10260;SDS011;5175;42.606;23.388;2023-01-01T05:26:27;41.13;;;28.57;;
10260;SDS011;5175;42.606;23.388;2023-01-01T05:28:55;36.53;;;24.73;;
10260;SDS011;5175;42.606;23.388;2023-01-01T05:31:24;28.70;;;20.17;;
10260;SDS011;5175;42.606;23.388;2023-01-01T05:33:52;22.83;;;15.93;;
10260;SDS011;5175;42.606;23.388;2023-01-01T05:36:21;17.93;;;13.03;;
10260;SDS011;5175;42.606;23.388;2023-01-01T05:38:49;21.30;;;12.80;;
10260;SDS011;5175;42.606;23.388;2023-01-01T05:41:17;17.83;;;11.27;;
10260;SDS011;5175;42.606;23.388;2023-01-01T05:43:46;13.03;;;10.00;;
10260;SDS011;5175;42.606;23.388;2023-01-01T05:46:13;13.97;;;10.37;;
10260;SDS011;5175;42.606;23.388;2023-01-01T05:48:41;16.57;;;11.37;;
10260;SDS011;5175;42.606;23.388;2023-01-01T05:51:09;14.03;;;10.70;;
10260;SDS011;5175;42.606;23.388;2023-01-01T05:53:37;12.87;;;9.83;;
10260;SDS011;5175;42.606;23.388;2023-01-01T05:56:04;14.20;;;9.50;;
10260;SDS011;5175;42.606;23.388;2023-01-01T05:58:32;11.83;;;8.97;;
10260;SDS011;5175;42.606;23.388;2023-01-01T06:01:05;14.63;;;10.97;;
10260;SDS011;5175;42.606;23.388;2023-01-01T06:03:33;13.93;;;10.67;;
10260;SDS011;5175;42.606;23.388;2023-01-01T06:06:02;15.90;;;12.23;;
10260;SDS011;5175;42.606;23.388;2023-01-01T06:08:29;17.30;;;12.10;;
10260;SDS011;5175;42.606;23.388;2023-01-01T06:10:57;14.97;;;11.60;;
10260;SDS011;5175;42.606;23.388;2023-01-01T06:13:24;16.50;;;12.53;;
10260;SDS011;5175;42.606;23.388;2023-01-01T06:15:52;16.40;;;11.50;;
10260;SDS011;5175;42.606;23.388;2023-01-01T06:18:20;17.53;;;11.87;;
10260;SDS011;5175;42.606;23.388;2023-01-01T06:20:47;14.77;;;11.53;;
10260;SDS011;5175;42.606;23.388;2023-01-01T06:23:14;15.50;;;11.37;;
10260;SDS011;5175;42.606;23.388;2023-01-01T06:25:41;16.07;;;11.03;;
10260;SDS011;5175;42.606;23.388;2023-01-01T06:28:07;15.03;;;10.07;;
10260;SDS011;5175;42.606;23.388;2023-01-01T06:30:34;11.90;;;9.30;;
10260;SDS011;5175;42.606;23.388;2023-01-01T06:33:01;13.40;;;9.50;;
10260;SDS011;5175;42.606;23.388;2023-01-01T06:35:30;11.73;;;9.13;;
10260;SDS011;5175;42.606;23.388;2023-01-01T06:37:58;12.37;;;9.10;;
10260;SDS011;5175;42.606;23.388;2023-01-01T06:40:25;13.13;;;9.17;;
10260;SDS011;5175;42.606;23.388;2023-01-01T06:42:51;12.30;;;9.80;;
10260;SDS011;5175;42.606;23.388;2023-01-01T06:45:18;15.73;;;12.10;;
10260;SDS011;5175;42.606;23.388;2023-01-01T06:47:45;17.83;;;13.17;;
10260;SDS011;5175;42.606;23.388;2023-01-01T06:50:11;19.17;;;13.97;;
10260;SDS011;5175;42.606;23.388;2023-01-01T06:52:39;19.40;;;14.17;;
10260;SDS011;5175;42.606;23.388;2023-01-01T06:55:06;22.87;;;15.83;;
10260;SDS011;5175;42.606;23.388;2023-01-01T06:57:34;23.20;;;16.20;;
10260;SDS011;5175;42.606;23.388;2023-01-01T07:00:00;19.70;;;14.33;;
10260;SDS011;5175;42.606;23.388;2023-01-01T07:02:27;20.80;;;14.93;;
10260;SDS011;5175;42.606;23.388;2023-01-01T07:04:54;22.93;;;16.90;;
10260;SDS011;5175;42.606;23.388;2023-01-01T07:07:21;24.30;;;17.60;;
10260;SDS011;5175;42.606;23.388;2023-01-01T07:09:49;23.83;;;16.90;;
10260;SDS011;5175;42.606;23.388;2023-01-01T07:12:15;23.53;;;17.43;;
10260;SDS011;5175;42.606;23.388;2023-01-01T07:14:42;27.80;;;18.93;;
10260;SDS011;5175;42.606;23.388;2023-01-01T07:17:09;26.70;;;19.80;;
10260;SDS011;5175;42.606;23.388;2023-01-01T07:19:35;25.57;;;18.87;;
10260;SDS011;5175;42.606;23.388;2023-01-01T07:22:02;23.73;;;17.97;;
10260;SDS011;5175;42.606;23.388;2023-01-01T07:24:29;22.43;;;16.00;;
10260;SDS011;5175;42.606;23.388;2023-01-01T07:26:57;22.90;;;16.30;;
10260;SDS011;5175;42.606;23.388;2023-01-01T07:29:23;20.20;;;16.37;;
10260;SDS011;5175;42.606;23.388;2023-01-01T07:31:50;17.23;;;13.37;;
10260;SDS011;5175;42.606;23.388;2023-01-01T07:34:18;14.53;;;11.40;;
10260;SDS011;5175;42.606;23.388;2023-01-01T07:36:46;14.30;;;11.93;;
10260;SDS011;5175;42.606;23.388;2023-01-01T07:39:13;16.77;;;12.30;;
10260;SDS011;5175;42.606;23.388;2023-01-01T07:41:40;15.83;;;13.00;;
10260;SDS011;5175;42.606;23.388;2023-01-01T07:44:08;17.13;;;13.40;;
10260;SDS011;5175;42.606;23.388;2023-01-01T07:46:35;18.03;;;14.50;;
10260;SDS011;5175;42.606;23.388;2023-01-01T07:49:02;19.47;;;16.27;;
10260;SDS011;5175;42.606;23.388;2023-01-01T07:51:29;23.77;;;18.70;;
10260;SDS011;5175;42.606;23.388;2023-01-01T07:53:56;25.50;;;19.00;;
10260;SDS011;5175;42.606;23.388;2023-01-01T07:56:22;25.97;;;19.33;;
10260;SDS011;5175;42.606;23.388;2023-01-01T07:58:49;24.40;;;19.60;;
10260;SDS011;5175;42.606;23.388;2023-01-01T08:01:17;27.80;;;19.07;;
10260;SDS011;5175;42.606;23.388;2023-01-01T08:03:44;23.03;;;17.87;;
10260;SDS011;5175;42.606;23.388;2023-01-01T08:06:16;22.77;;;16.63;;
10260;SDS011;5175;42.606;23.388;2023-01-01T08:08:43;17.83;;;13.80;;
10260;SDS011;5175;42.606;23.388;2023-01-01T08:11:09;13.57;;;11.33;;
10260;SDS011;5175;42.606;23.388;2023-01-01T08:13:36;13.17;;;11.47;;
10260;SDS011;5175;42.606;23.388;2023-01-01T08:16:03;13.60;;;10.37;;
10260;SDS011;5175;42.606;23.388;2023-01-01T08:18:31;11.37;;;9.67;;
10260;SDS011;5175;42.606;23.388;2023-01-01T08:20:58;11.40;;;9.50;;
10260;SDS011;5175;42.606;23.388;2023-01-01T08:23:25;9.63;;;8.63;;
10260;SDS011;5175;42.606;23.388;2023-01-01T08:25:52;9.93;;;8.87;;
10260;SDS011;5175;42.606;23.388;2023-01-01T08:28:19;9.93;;;8.53;;
10260;SDS011;5175;42.606;23.388;2023-01-01T08:30:46;11.53;;;9.57;;
10260;SDS011;5175;42.606;23.388;2023-01-01T08:33:12;10.73;;;9.57;;
10260;SDS011;5175;42.606;23.388;2023-01-01T08:35:41;20.13;;;16.17;;
10260;SDS011;5175;42.606;23.388;2023-01-01T08:38:09;41.77;;;31.33;;
10260;SDS011;5175;42.606;23.388;2023-01-01T08:40:36;47.33;;;35.87;;
10260;SDS011;5175;42.606;23.388;2023-01-01T08:43:03;49.70;;;36.67;;
10260;SDS011;5175;42.606;23.388;2023-01-01T08:45:30;50.60;;;38.17;;
10260;SDS011;5175;42.606;23.388;2023-01-01T08:47:57;53.40;;;39.03;;
10260;SDS011;5175;42.606;23.388;2023-01-01T08:50:24;50.00;;;39.27;;
10260;SDS011;5175;42.606;23.388;2023-01-01T08:52:52;49.67;;;38.53;;
10260;SDS011;5175;42.606;23.388;2023-01-01T08:55:19;52.40;;;39.10;;
10260;SDS011;5175;42.606;23.388;2023-01-01T08:57:46;49.60;;;38.40;;
10260;SDS011;5175;42.606;23.388;2023-01-01T09:00:12;46.30;;;36.37;;
10260;SDS011;5175;42.606;23.388;2023-01-01T09:02:40;46.07;;;36.93;;
10260;SDS011;5175;42.606;23.388;2023-01-01T09:05:07;47.10;;;36.43;;
10260;SDS011;5175;42.606;23.388;2023-01-01T09:07:34;49.67;;;38.83;;
10260;SDS011;5175;42.606;23.388;2023-01-01T09:10:03;48.47;;;36.77;;
10260;SDS011;5175;42.606;23.388;2023-01-01T09:12:30;46.77;;;37.13;;
10260;SDS011;5175;42.606;23.388;2023-01-01T09:14:57;47.67;;;37.30;;
10260;SDS011;5175;42.606;23.388;2023-01-01T09:17:24;51.03;;;39.93;;
10260;SDS011;5175;42.606;23.388;2023-01-01T09:19:50;47.17;;;36.60;;
10260;SDS011;5175;42.606;23.388;2023-01-01T09:22:17;46.47;;;36.17;;
10260;SDS011;5175;42.606;23.388;2023-01-01T09:24:44;52.30;;;38.23;;
10260;SDS011;5175;42.606;23.388;2023-01-01T09:27:12;49.80;;;37.67;;
10260;SDS011;5175;42.606;23.388;2023-01-01T09:29:38;49.23;;;37.97;;
10260;SDS011;5175;42.606;23.388;2023-01-01T09:32:05;46.83;;;35.73;;
10260;SDS011;5175;42.606;23.388;2023-01-01T09:34:32;46.20;;;37.07;;
10260;SDS011;5175;42.606;23.388;2023-01-01T09:36:58;52.37;;;37.27;;
10260;SDS011;5175;42.606;23.388;2023-01-01T09:39:25;50.03;;;37.70;;
10260;SDS011;5175;42.606;23.388;2023-01-01T09:44:52;41.53;;;34.93;;
10260;SDS011;5175;42.606;23.388;2023-01-01T09:47:28;47.47;;;37.23;;
10260;SDS011;5175;42.606;23.388;2023-01-01T09:49:59;46.27;;;35.67;;
10260;SDS011;5175;42.606;23.388;2023-01-01T09:52:36;41.97;;;35.03;;
10260;SDS011;5175;42.606;23.388;2023-01-01T09:55:10;43.83;;;34.30;;
10260;SDS011;5175;42.606;23.388;2023-01-01T09:57:45;45.00;;;35.10;;
10260;SDS011;5175;42.606;23.388;2023-01-01T10:00:15;41.23;;;34.83;;
10260;SDS011;5175;42.606;23.388;2023-01-01T10:02:47;44.23;;;33.77;;
10260;SDS011;5175;42.606;23.388;2023-01-01T10:05:30;43.83;;;33.90;;
10260;SDS011;5175;42.606;23.388;2023-01-01T10:08:04;46.13;;;35.23;;
10260;SDS011;5175;42.606;23.388;2023-01-01T10:10:40;78.27;;;52.80;;
10260;SDS011;5175;42.606;23.388;2023-01-01T10:13:20;53.93;;;38.40;;
10260;SDS011;5175;42.606;23.388;2023-01-01T10:15:52;46.53;;;36.03;;
10260;SDS011;5175;42.606;23.388;2023-01-01T10:18:24;49.37;;;37.20;;
10260;SDS011;5175;42.606;23.388;2023-01-01T10:20:57;44.73;;;36.10;;
10260;SDS011;5175;42.606;23.388;2023-01-01T10:23:28;44.13;;;36.10;;
10260;SDS011;5175;42.606;23.388;2023-01-01T10:26:00;48.00;;;36.57;;
10260;SDS011;5175;42.606;23.388;2023-01-01T10:28:34;49.37;;;37.43;;
10260;SDS011;5175;42.606;23.388;2023-01-01T10:31:11;44.57;;;36.77;;
10260;SDS011;5175;42.606;23.388;2023-01-01T10:33:40;41.73;;;34.37;;
10260;SDS011;5175;42.606;23.388;2023-01-01T10:36:08;46.73;;;36.00;;
10260;SDS011;5175;42.606;23.388;2023-01-01T10:38:38;41.90;;;35.30;;
10260;SDS011;5175;42.606;23.388;2023-01-01T10:41:06;42.60;;;34.90;;
10260;SDS011;5175;42.606;23.388;2023-01-01T10:43:36;44.60;;;35.40;;
10260;SDS011;5175;42.606;23.388;2023-01-01T10:46:03;41.63;;;33.30;;
10260;SDS011;5175;42.606;23.388;2023-01-01T10:48:31;40.93;;;34.10;;
10260;SDS011;5175;42.606;23.388;2023-01-01T10:51:00;39.57;;;34.17;;
10260;SDS011;5175;42.606;23.388;2023-01-01T10:53:29;40.63;;;33.07;;
10260;SDS011;5175;42.606;23.388;2023-01-01T10:55:59;42.60;;;33.83;;
10260;SDS011;5175;42.606;23.388;2023-01-01T10:58:36;40.30;;;33.23;;
10260;SDS011;5175;42.606;23.388;2023-01-01T11:01:05;41.07;;;33.17;;
10260;SDS011;5175;42.606;23.388;2023-01-01T11:03:33;43.13;;;33.50;;
10260;SDS011;5175;42.606;23.388;2023-01-01T11:06:01;41.10;;;32.77;;
10260;SDS011;5175;42.606;23.388;2023-01-01T11:08:46;40.03;;;33.17;;
10260;SDS011;5175;42.606;23.388;2023-01-01T11:11:21;40.53;;;33.27;;
10260;SDS011;5175;42.606;23.388;2023-01-01T11:13:54;36.63;;;32.00;;
10260;SDS011;5175;42.606;23.388;2023-01-01T11:16:23;38.37;;;31.67;;
10260;SDS011;5175;42.606;23.388;2023-01-01T11:18:51;35.23;;;30.53;;
10260;SDS011;5175;42.606;23.388;2023-01-01T11:21:25;39.40;;;32.50;;
10260;SDS011;5175;42.606;23.388;2023-01-01T11:24:09;37.67;;;31.17;;
10260;SDS011;5175;42.606;23.388;2023-01-01T11:26:43;36.37;;;29.87;;
10260;SDS011;5175;42.606;23.388;2023-01-01T11:29:19;34.03;;;28.13;;
10260;SDS011;5175;42.606;23.388;2023-01-01T11:31:49;34.73;;;28.83;;
10260;SDS011;5175;42.606;23.388;2023-01-01T11:34:26;38.47;;;29.30;;
10260;SDS011;5175;42.606;23.388;2023-01-01T11:37:06;33.27;;;28.10;;
10260;SDS011;5175;42.606;23.388;2023-01-01T11:39:41;34.67;;;27.43;;
10260;SDS011;5175;42.606;23.388;2023-01-01T11:42:10;34.93;;;28.67;;
10260;SDS011;5175;42.606;23.388;2023-01-01T11:44:45;33.80;;;27.33;;
10260;SDS011;5175;42.606;23.388;2023-01-01T11:47:18;30.13;;;26.87;;
10260;SDS011;5175;42.606;23.388;2023-01-01T11:49:52;31.07;;;25.90;;
10260;SDS011;5175;42.606;23.388;2023-01-01T11:52:27;31.23;;;27.20;;
10260;SDS011;5175;42.606;23.388;2023-01-01T11:55:01;31.57;;;26.93;;
10260;SDS011;5175;42.606;23.388;2023-01-01T11:57:35;31.57;;;26.90;;
10260;SDS011;5175;42.606;23.388;2023-01-01T12:00:11;29.77;;;25.77;;
10260;SDS011;5175;42.606;23.388;2023-01-01T12:02:41;32.57;;;26.77;;
10260;SDS011;5175;42.606;23.388;2023-01-01T12:05:18;33.97;;;28.10;;
10260;SDS011;5175;42.606;23.388;2023-01-01T12:07:49;32.63;;;26.93;;
10260;SDS011;5175;42.606;23.388;2023-01-01T12:10:18;32.43;;;25.87;;
10260;SDS011;5175;42.606;23.388;2023-01-01T12:12:49;31.77;;;25.53;;
10260;SDS011;5175;42.606;23.388;2023-01-01T12:15:20;31.37;;;26.80;;
10260;SDS011;5175;42.606;23.388;2023-01-01T12:17:54;32.40;;;26.73;;
10260;SDS011;5175;42.606;23.388;2023-01-01T12:20:27;33.67;;;26.87;;
10260;SDS011;5175;42.606;23.388;2023-01-01T12:22:55;30.67;;;25.57;;
10260;SDS011;5175;42.606;23.388;2023-01-01T12:25:25;31.60;;;25.60;;
10260;SDS011;5175;42.606;23.388;2023-01-01T12:28:00;32.43;;;26.20;;
10260;SDS011;5175;42.606;23.388;2023-01-01T12:30:35;30.70;;;25.77;;
10260;SDS011;5175;42.606;23.388;2023-01-01T12:33:15;30.00;;;24.93;;
10260;SDS011;5175;42.606;23.388;2023-01-01T12:36:03;30.30;;;24.43;;
10260;SDS011;5175;42.606;23.388;2023-01-01T12:38:43;31.27;;;25.10;;
10260;SDS011;5175;42.606;23.388;2023-01-01T12:41:31;30.27;;;24.50;;
10260;SDS011;5175;42.606;23.388;2023-01-01T12:44:15;29.83;;;24.43;;
10260;SDS011;5175;42.606;23.388;2023-01-01T12:46:53;28.43;;;23.63;;
10260;SDS011;5175;42.606;23.388;2023-01-01T12:49:32;29.40;;;24.03;;
10260;SDS011;5175;42.606;23.388;2023-01-01T12:52:10;28.37;;;24.17;;
10260;SDS011;5175;42.606;23.388;2023-01-01T12:57:45;31.60;;;24.80;;
10260;SDS011;5175;42.606;23.388;2023-01-01T13:00:17;28.37;;;22.93;;
10260;SDS011;5175;42.606;23.388;2023-01-01T13:02:49;30.93;;;25.37;;
10260;SDS011;5175;42.606;23.388;2023-01-01T13:05:19;28.40;;;25.07;;
10260;SDS011;5175;42.606;23.388;2023-01-01T13:07:50;30.13;;;24.47;;
10260;SDS011;5175;42.606;23.388;2023-01-01T13:10:23;29.93;;;23.70;;
10260;SDS011;5175;42.606;23.388;2023-01-01T13:12:52;27.27;;;23.60;;
10260;SDS011;5175;42.606;23.388;2023-01-01T13:18:22;30.97;;;25.03;;
10260;SDS011;5175;42.606;23.388;2023-01-01T13:21:02;28.13;;;24.87;;
10260;SDS011;5175;42.606;23.388;2023-01-01T13:23:41;31.77;;;25.23;;
10260;SDS011;5175;42.606;23.388;2023-01-01T13:32:03;29.70;;;25.77;;
10260;SDS011;5175;42.606;23.388;2023-01-01T13:34:34;28.77;;;24.43;;
10260;SDS011;5175;42.606;23.388;2023-01-01T13:39:52;27.83;;;24.53;;
10260;SDS011;5175;42.606;23.388;2023-01-01T13:45:17;30.08;;;25.30;;
10260;SDS011;5175;42.606;23.388;2023-01-01T13:47:54;31.65;;;24.30;;
10260;SDS011;5175;42.606;23.388;2023-01-01T13:50:35;26.80;;;23.67;;
10260;SDS011;5175;42.606;23.388;2023-01-01T13:53:17;27.27;;;23.05;;
10260;SDS011;5175;42.606;23.388;2023-01-01T13:55:55;32.57;;;25.70;;
10260;SDS011;5175;42.606;23.388;2023-01-01T14:01:43;31.67;;;26.33;;
10260;SDS011;5175;42.606;23.388;2023-01-01T14:07:03;28.87;;;24.73;;
10260;SDS011;5175;42.606;23.388;2023-01-01T14:09:39;30.30;;;24.80;;
10260;SDS011;5175;42.606;23.388;2023-01-01T14:12:09;32.67;;;25.13;;
10260;SDS011;5175;42.606;23.388;2023-01-01T14:14:40;28.77;;;24.07;;
10260;SDS011;5175;42.606;23.388;2023-01-01T14:17:06;32.10;;;26.77;;
10260;SDS011;5175;42.606;23.388;2023-01-01T14:19:33;30.00;;;26.80;;
10260;SDS011;5175;42.606;23.388;2023-01-01T14:22:06;32.10;;;25.40;;
10260;SDS011;5175;42.606;23.388;2023-01-01T14:24:35;28.00;;;23.23;;
10260;SDS011;5175;42.606;23.388;2023-01-01T14:27:05;26.13;;;21.57;;
10260;SDS011;5175;42.606;23.388;2023-01-01T14:29:32;25.17;;;21.10;;
10260;SDS011;5175;42.606;23.388;2023-01-01T14:32:10;24.20;;;19.23;;
10260;SDS011;5175;42.606;23.388;2023-01-01T14:34:38;21.73;;;19.43;;
10260;SDS011;5175;42.606;23.388;2023-01-01T14:37:18;24.77;;;19.27;;
10260;SDS011;5175;42.606;23.388;2023-01-01T14:40:02;23.20;;;17.97;;
10260;SDS011;5175;42.606;23.388;2023-01-01T14:42:39;23.43;;;18.17;;
10260;SDS011;5175;42.606;23.388;2023-01-01T14:45:11;24.40;;;18.43;;
10260;SDS011;5175;42.606;23.388;2023-01-01T14:47:40;23.77;;;18.67;;
10260;SDS011;5175;42.606;23.388;2023-01-01T14:50:10;26.50;;;19.13;;
10260;SDS011;5175;42.606;23.388;2023-01-01T14:52:43;25.13;;;19.00;;
10260;SDS011;5175;42.606;23.388;2023-01-01T14:55:11;29.03;;;21.17;;
10260;SDS011;5175;42.606;23.388;2023-01-01T14:57:43;24.47;;;19.37;;
10260;SDS011;5175;42.606;23.388;2023-01-01T15:00:13;27.30;;;19.27;;
10260;SDS011;5175;42.606;23.388;2023-01-01T15:02:46;26.00;;;19.17;;
10260;SDS011;5175;42.606;23.388;2023-01-01T15:05:25;21.97;;;18.10;;
10260;SDS011;5175;42.606;23.388;2023-01-01T15:07:56;24.03;;;19.57;;
10260;SDS011;5175;42.606;23.388;2023-01-01T15:10:24;25.50;;;21.53;;